Time;durP1;ratioP1;P1;durP2;ratioP2;P2;SDS_P1;SDS_P2;PMS_P1;PMS_P2;Temp;Humidity;BMP_temperature;BMP_pressure;BME280_temperature;BME280_humidity;BME280_pressure;Samples;Min_cycle;Max_cycle;Signal;HPM_P1;HPM_P2
2023/11/16 00:08:11;;;;;;;37.83;19.40;;;;;;;5.69;67.69;98601.91;6305736;22;20031;-92
2023/11/16 00:18:10;;;;;;;43.35;18.67;;;;;;;6.08;67.53;98658.47;6291639;22;20082;-92
2023/11/16 00:21:02;;;;;;;37.65;18.42;;;;;;;5.98;67.43;98659.47;6250451;22;20023;-92
2023/11/16 00:23:28;;;;;;;39.33;19.27;;;;;;;5.72;67.55;98631.94;6250696;22;20018;-94
2023/11/16 00:26:03;;;;;;;39.33;18.13;;;;;;;5.82;68.30;98666.22;6264027;22;20014;31
2023/11/16 00:28:56;;;;;;;40.42;19.52;;;;;;;5.63;68.32;98661.66;6154799;23;20255;-93
2023/11/16 00:31:30;;;;;;;43.08;18.20;;;;;;;5.13;68.82;98563.00;6184415;23;20051;-93
2023/11/16 00:33:57;;;;;;;39.78;18.60;;;;;;;5.50;68.45;98615.53;6187037;23;20052;-93
2023/11/16 00:36:43;;;;;;;38.63;18.77;;;;;;;5.37;68.58;98609.78;6160723;23;20024;-93
2023/11/16 00:39:13;;;;;;;40.90;19.52;;;;;;;5.24;68.66;98579.91;6172102;22;20092;-93
2023/11/16 00:42:05;;;;;;;47.05;19.02;;;;;;;5.71;68.24;98667.50;6151841;23;20024;-92
2023/11/16 00:45:21;;;;;;;43.80;18.23;;;;;;;5.81;68.82;98670.06;6199230;23;20031;-95
2023/11/16 00:54:22;;;;;;;37.17;18.35;;;;;;;5.80;67.94;98635.91;6300985;22;20010;-91
2023/11/16 00:57:40;;;;;;;38.08;18.35;;;;;;;6.06;67.87;98669.66;6210886;23;20114;-91
2023/11/16 01:00:31;;;;;;;39.90;18.63;;;;;;;6.11;67.79;98669.53;6221421;22;20025;-90
2023/11/16 01:03:03;;;;;;;42.47;19.42;;;;;;;5.54;68.14;98598.38;6226686;23;20021;-93
2023/11/16 01:08:46;;;;;;;45.10;18.50;;;;;;;5.72;67.73;98610.25;6267627;23;20032;-92
2023/11/16 01:14:15;;;;;;;41.58;17.85;;;;;;;5.71;67.77;98619.50;6323124;22;20024;-92
2023/11/16 01:20:34;;;;;;;37.88;17.30;;;;;;;6.03;67.97;98674.88;6274399;22;20028;-94
2023/11/16 01:23:25;;;;;;;39.38;18.75;;;;;;;5.94;67.94;98650.31;6198056;22;20070;-92
2023/11/16 01:26:20;;;;;;;38.05;17.90;;;;;;;6.21;67.61;98681.31;6195707;23;20020;-94
2023/11/16 01:32:20;;;;;;;42.50;19.60;;;;;;;6.05;67.64;98635.47;6266524;22;20084;-91
2023/11/16 01:35:33;;;;;;;47.08;18.33;;;;;;;6.25;67.38;98677.69;6159772;22;20259;-91
2023/11/16 01:47:13;;;;;;;42.17;19.17;;;;;;;6.22;67.14;98680.19;6236026;22;20019;-92
2023/11/16 01:50:05;;;;;;;43.42;19.02;;;;;;;5.90;67.75;98652.00;6269632;22;20034;-93
2023/11/16 02:16:46;;;;;;;42.83;19.17;;;;;;;6.52;67.46;98703.25;6294289;22;20095;-92
2023/11/16 02:23:02;;;;;;;43.05;19.02;;;;;;;6.06;67.45;98623.53;6289650;22;20031;-93
2023/11/16 02:28:31;;;;;;;41.20;19.10;;;;;;;5.86;67.69;98613.81;6265337;23;20055;-95
2023/11/16 02:38:25;;;;;;;41.28;19.08;;;;;;;5.94;67.42;98611.53;6304041;22;20031;-94
2023/11/16 02:44:14;;;;;;;41.78;19.45;;;;;;;6.47;67.58;98692.50;6298406;22;20254;-93
2023/11/16 02:56:31;;;;;;;42.97;18.35;;;;;;;5.99;68.66;98676.53;6274288;22;19995;-92
2023/11/16 02:59:23;;;;;;;40.03;19.48;;;;;;;6.02;68.82;98678.66;6278533;22;20023;-93
2023/11/16 03:08:52;;;;;;;36.70;18.73;;;;;;;5.72;68.54;98637.38;6166313;23;20017;-93
2023/11/16 03:26:21;;;;;;;42.05;21.25;;;;;;;5.80;68.83;98655.69;6222328;22;20023;-94
2023/11/16 03:39:05;;;;;;;55.60;22.45;;;;;;;5.89;69.03;98677.50;6301727;22;20053;-92
2023/11/16 03:51:29;;;;;;;48.42;21.20;;;;;;;6.16;69.05;98741.94;6233385;22;21172;31
2023/11/16 03:55:04;;;;;;;53.85;21.45;;;;;;;6.07;70.02;98743.72;6202123;23;19906;-93
2023/11/16 06:43:31;;;;;;;19.15;9.52;;;;;;;5.11;72.90;98830.72;6302441;22;20023;-92
2023/11/16 06:51:19;;;;;;;21.83;9.80;;;;;;;4.46;73.79;98747.19;6290908;22;20015;-91
2023/11/16 07:31:37;;;;;;;25.65;11.40;;;;;;;4.95;70.46;98825.44;6299432;22;20064;-94
2023/11/16 15:24:13;;;;;;;13.50;4.03;;;;;;;2.18;71.14;99107.69;6239286;23;20023;-88
2023/11/16 15:39:04;;;;;;;6.95;4.00;;;;;;;2.51;71.37;99176.59;6285511;22;20073;-92
2023/11/16 16:06:49;;;;;;;7.68;3.20;;;;;;;2.47;70.72;99190.91;6284831;22;20055;-90
2023/11/16 16:10:32;;;;;;;7.28;3.45;;;;;;;2.24;71.00;99154.38;6302413;22;20054;-92
2023/11/16 16:22:50;;;;;;;5.07;2.75;;;;;;;2.57;70.44;99199.03;6262170;22;20065;-91
2023/11/16 16:25:58;;;;;;;10.48;3.00;;;;;;;1.81;70.09;99088.91;6283836;22;20019;-91
2023/11/16 16:33:08;;;;;;;5.63;3.13;;;;;;;1.91;70.04;99113.22;6250729;22;20081;-90
2023/11/16 16:37:10;;;;;;;11.32;3.10;;;;;;;2.38;70.18;99209.47;6243770;22;20034;-92
2023/11/16 16:40:44;;;;;;;3.67;2.42;;;;;;;2.37;70.43;99210.53;6263311;22;20019;-93
2023/11/16 16:53:12;;;;;;;6.97;3.20;;;;;;;2.44;71.17;99210.31;6300924;22;20023;-90
2023/11/16 16:56:09;;;;;;;5.53;2.78;;;;;;;2.50;70.46;99214.66;6194139;22;20015;-88
2023/11/16 16:59:06;;;;;;;5.72;3.22;;;;;;;2.29;70.41;99176.78;6229951;22;20046;-88
2023/11/16 17:01:46;;;;;;;4.55;2.70;;;;;;;2.50;70.40;99210.06;6243849;22;20022;-90
2023/11/16 17:04:12;;;;;;;8.93;2.83;;;;;;;2.21;69.61;99179.97;6217034;22;20016;-88
2023/11/16 17:06:41;;;;;;;16.73;3.00;;;;;;;2.32;69.89;99210.53;6270448;22;20046;-88
2023/11/16 17:09:24;;;;;;;9.30;2.55;;;;;;;2.11;68.95;99175.34;6268677;22;20020;-88
2023/11/16 17:11:50;;;;;;;6.03;2.55;;;;;;;2.11;68.40;99190.69;6218026;22;20016;-88
2023/11/16 17:14:22;;;;;;;2.92;1.67;;;;;;;1.83;68.44;99148.75;6217022;22;20035;-89
2023/11/16 17:17:25;;;;;;;5.20;2.35;;;;;;;1.90;68.77;99168.19;6279667;22;20020;-92
2023/11/16 17:20:13;;;;;;;4.80;2.08;;;;;;;1.61;69.16;99130.81;6221412;22;20169;-90
2023/11/16 17:22:42;;;;;;;2.58;2.00;;;;;;;1.86;69.55;99172.50;6219297;22;20030;-89
2023/11/16 17:25:11;;;;;;;3.92;2.17;;;;;;;2.18;69.78;99217.44;6245146;22;20015;-89
2023/11/16 17:27:43;;;;;;;2.35;1.73;;;;;;;1.82;69.65;99176.75;6244843;22;20026;-89
2023/11/16 17:30:35;;;;;;;3.05;1.90;;;;;;;2.09;70.22;99226.03;6218819;22;20069;-89
2023/11/16 17:33:02;;;;;;;8.23;2.92;;;;;;;2.09;70.87;99230.63;6215082;22;20020;-88
2023/11/16 17:35:37;;;;;;;9.63;2.70;;;;;;;2.09;71.12;99230.63;6220038;22;20003;-87
2023/11/16 17:38:09;;;;;;;4.30;2.33;;;;;;;1.87;71.21;99199.19;6197575;22;20044;-89
2023/11/16 17:46:37;;;;;;;3.00;2.20;;;;;;;2.04;70.91;99228.69;6296242;22;20161;-91
2023/11/16 17:49:28;;;;;;;3.55;2.30;;;;;;;1.46;70.69;99143.34;6297680;22;20060;-90
2023/11/16 17:51:54;;;;;;;4.63;2.30;;;;;;;1.82;70.48;99209.09;6205616;23;20020;-87
2023/11/16 17:54:52;;;;;;;;;;;;;;;1.95;70.31;99232.09;6191338;23;20016;-91
2023/11/16 17:57:21;;;;;;;3.88;1.98;;;;;;;1.80;70.26;99230.94;6238940;22;19926;-89
2023/11/16 17:59:52;;;;;;;4.38;2.00;;;;;;;1.69;68.87;99213.06;6215964;23;20024;-88
2023/11/16 18:02:18;;;;;;;;;;;;;;;1.94;68.24;99242.09;6238389;23;20020;-87
2023/11/16 18:08:43;;;;;;;3.75;1.88;;;;;;;1.72;67.88;99211.72;6231339;23;20020;-91
2023/11/16 18:11:44;;;;;;;2.85;1.95;;;;;;;1.83;67.55;99218.81;6105879;23;20026;-88
2023/11/16 18:14:14;;;;;;;4.05;2.13;;;;;;;1.90;67.71;99232.09;6144895;23;20081;-89
2023/11/16 18:17:34;;;;;;;3.42;2.25;;;;;;;2.09;67.10;99253.00;6118522;23;20110;-90
2023/11/16 18:20:05;;;;;;;10.52;3.08;;;;;;;2.10;67.15;99241.13;6193759;22;20102;-89
2023/11/16 18:29:49;;;;;;;6.43;1.92;;;;;;;1.90;68.02;99205.94;6246910;22;20165;-90
2023/11/16 18:32:32;;;;;;;5.15;2.60;;;;;;;1.91;66.80;99196.78;6296762;22;19996;-90
2023/11/16 18:35:36;;;;;;;3.53;1.67;;;;;;;1.64;66.27;99170.72;6257834;22;20101;-89
2023/11/16 18:38:28;;;;;;;8.60;2.88;;;;;;;2.28;67.50;99266.03;6250301;22;20019;-89
2023/11/16 18:41:19;;;;;;;4.32;2.08;;;;;;;2.30;67.14;99272.00;6196283;22;20035;-90
2023/11/16 18:47:32;;;;;;;13.20;2.45;;;;;;;2.36;67.25;99276.38;6266716;22;20004;-91
2023/11/16 18:50:04;;;;;;;13.45;2.45;;;;;;;2.08;67.10;99240.56;6272691;22;20015;-89
2023/11/16 18:52:31;;;;;;;4.38;2.25;;;;;;;1.90;66.76;99216.72;6248170;22;20019;-93
2023/11/16 18:55:23;;;;;;;4.15;2.00;;;;;;;2.37;66.56;99277.19;6247309;22;20019;-91
2023/11/16 18:57:56;;;;;;;3.72;2.15;;;;;;;2.15;66.25;99266.50;6247333;22;20016;-89
2023/11/16 19:00:23;;;;;;;3.33;1.70;;;;;;;1.73;66.04;99208.78;6219856;22;20015;-92
2023/11/16 19:02:49;;;;;;;;;;;;;;;2.19;65.57;99283.81;6246782;22;20470;-88
2023/11/16 19:05:23;;;;;;;6.03;2.17;;;;;;;1.81;66.13;99237.94;6271365;22;19915;-91
2023/11/16 19:08:12;;;;;;;3.90;2.30;;;;;;;1.91;66.94;99261.47;6223250;22;20034;-90
2023/11/16 19:11:05;;;;;;;5.95;2.10;;;;;;;2.17;67.40;99294.84;6223049;22;20019;-91
2023/11/16 19:17:52;;;;;;;5.88;2.58;;;;;;;2.20;67.38;99297.03;6300032;22;20000;-90
2023/11/16 19:20:24;;;;;;;3.47;2.10;;;;;;;2.11;67.13;99299.38;6221545;22;20030;-90
2023/11/16 19:25:50;;;;;;;3.97;2.10;;;;;;;1.99;67.34;99298.75;6307417;22;20031;-90
2023/11/16 19:28:22;;;;;;;2.10;1.73;;;;;;;1.41;67.73;99217.66;6277091;22;20015;-91
2023/11/16 19:30:54;;;;;;;6.03;2.08;;;;;;;1.31;67.88;99196.03;6249790;22;20020;-91
2023/11/16 19:33:27;;;;;;;9.93;2.40;;;;;;;1.75;67.60;99270.50;6201629;22;20023;-88
2023/11/16 19:36:18;;;;;;;5.53;2.30;;;;;;;1.82;68.34;99268.38;6304928;22;20094;-88
2023/11/16 19:38:48;;;;;;;7.47;1.85;;;;;;;1.59;68.17;99232.66;6205812;22;20019;-90
2023/11/16 19:41:35;;;;;;;2.28;1.73;;;;;;;1.46;68.66;99216.91;6279252;22;20015;-91
2023/11/16 19:44:03;;;;;;;4.00;2.30;;;;;;;1.68;68.67;99269.88;6227785;22;20019;-91
2023/11/16 19:46:31;;;;;;;5.75;2.55;;;;;;;1.77;68.68;99274.56;6276772;22;20030;-91
2023/11/16 19:49:25;;;;;;;5.10;2.10;;;;;;;1.86;68.24;99323.44;6274806;22;20011;-92
2023/11/16 19:51:54;;;;;;;5.28;2.00;;;;;;;1.49;68.35;99285.59;6246645;22;20019;-90
2023/11/16 19:54:24;;;;;;;2.10;1.60;;;;;;;1.21;68.43;99271.31;6273758;22;20038;-90
2023/11/16 19:56:59;;;;;;;5.72;2.38;;;;;;;0.95;69.64;99243.28;6272221;22;20023;-89
2023/11/16 19:59:33;;;;;;;5.65;2.58;;;;;;;1.24;70.17;99289.66;6267639;22;20019;-88
2023/11/16 20:01:58;;;;;;;;;;;;;;;1.41;70.62;99332.66;6216539;22;20023;-95
2023/11/16 20:04:27;;;;;;;3.58;2.13;;;;;;;1.11;70.88;99306.19;6269440;22;20229;-94
2023/11/16 20:06:55;;;;;;;6.13;2.47;;;;;;;0.52;70.59;99207.25;6241940;22;20070;-91
2023/11/16 20:09:25;;;;;;;4.35;2.30;;;;;;;0.49;70.38;99223.88;6322147;22;20007;-94
2023/11/16 20:11:51;;;;;;;3.50;1.95;;;;;;;0.83;71.39;99313.41;6320124;22;20078;-90
2023/11/16 20:14:27;;;;;;;2.72;2.05;;;;;;;0.50;71.28;99278.47;6291804;22;20015;-90
2023/11/16 20:16:57;;;;;;;2.00;1.55;;;;;;;0.52;72.00;99298.69;6299226;22;20334;-90
2023/11/16 20:19:25;;;;;;;3.72;2.25;;;;;;;0.65;72.56;99310.97;6268374;22;20030;-90
2023/11/16 20:21:54;;;;;;;;;;;;;;;0.85;72.34;99351.63;6267360;22;20011;-89
2023/11/16 20:27:55;;;;;;;3.38;2.08;;;;;;;0.81;72.53;99360.44;6292610;22;20034;-91
2023/11/16 20:30:31;;;;;;;6.13;1.92;;;;;;;0.78;72.67;99360.94;6264583;22;20025;-90
2023/11/16 20:32:59;;;;;;;1.85;1.58;;;;;;;0.16;72.75;99283.91;6237933;22;20477;-89
2023/11/16 20:35:37;;;;;;;2.55;1.60;;;;;;;0.59;73.00;99369.25;6216910;22;20023;-88
2023/11/16 20:38:05;;;;;;;2.45;1.80;;;;;;;0.23;73.68;99301.53;6214509;22;20088;-91
2023/11/16 20:41:03;;;;;;;3.22;2.05;;;;;;;0.61;74.50;99356.41;6235031;22;20043;-90
2023/11/16 20:43:30;;;;;;;2.97;1.85;;;;;;;0.56;74.42;99342.84;6267649;22;20349;-90
2023/11/16 20:45:56;;;;;;;2.67;1.67;;;;;;;0.53;75.08;99346.06;6243318;22;20019;-93
2023/11/16 20:48:23;;;;;;;3.67;2.22;;;;;;;0.61;75.06;99361.78;6220889;22;20019;-91
2023/11/16 20:50:52;;;;;;;3.17;1.90;;;;;;;0.57;76.05;99357.97;6247977;22;20082;-90
2023/11/16 20:53:46;;;;;;;5.40;2.10;;;;;;;0.41;76.34;99354.22;6247712;22;20060;-92
2023/11/16 20:56:12;;;;;;;5.90;2.40;;;;;;;0.17;76.80;99323.19;6268588;22;20015;-91
2023/11/16 20:58:51;;;;;;;3.88;2.10;;;;;;;0.58;76.89;99404.50;6238628;22;20022;-93
2023/11/16 21:01:17;;;;;;;2.78;1.55;;;;;;;0.50;76.31;99394.97;6263673;22;20016;-91
2023/11/16 21:03:44;;;;;;;4.03;2.22;;;;;;;0.20;76.75;99361.16;6269566;22;20088;-91
2023/11/16 21:06:12;;;;;;;2.92;2.03;;;;;;;0.21;77.09;99368.16;6238955;22;20034;-90
2023/11/16 21:08:43;;;;;;;4.32;1.88;;;;;;;0.22;77.57;99359.00;6217763;22;20028;-93
2023/11/16 21:11:12;;;;;;;3.63;2.25;;;;;;;0.37;77.55;99388.03;6243498;22;20038;-91
2023/11/16 21:13:38;;;;;;;;;;;;;;;0.66;77.53;99414.84;6265180;22;20099;-89
2023/11/16 21:16:32;;;;;;;1.52;1.40;;;;;;;0.56;77.09;99418.16;6261621;22;19915;-90
2023/11/16 21:19:00;;;;;;;3.42;2.20;;;;;;;0.37;78.04;99390.72;6262782;22;20046;-92
2023/11/16 21:21:27;;;;;;;3.60;2.38;;;;;;;0.32;78.02;99390.63;6215989;22;20090;-88
2023/11/16 21:23:53;;;;;;;2.33;1.90;;;;;;;0.12;78.23;99347.28;6231506;23;20065;-90
2023/11/16 21:26:23;;;;;;;3.10;2.38;;;;;;;0.17;78.42;99358.94;6207020;23;20015;-92
2023/11/16 21:28:49;;;;;;;5.32;2.63;;;;;;;0.15;77.82;99368.31;6205845;23;20020;-90
2023/11/16 21:31:20;;;;;;;4.63;2.20;;;;;;;-0.18;77.31;99332.28;6231381;23;20083;-93
2023/11/16 21:34:02;;;;;;;2.35;1.75;;;;;;;-0.32;76.94;99328.28;6231326;23;20516;-90
2023/11/16 21:36:29;;;;;;;5.38;1.70;;;;;;;0.31;77.08;99426.66;6209797;23;20027;-89
2023/11/16 21:39:16;;;;;;;4.38;2.28;;;;;;;0.42;77.83;99433.81;6201402;23;20032;-88
2023/11/16 21:45:59;;;;;;;7.63;2.83;;;;;;;-0.01;78.60;99351.09;6211213;22;20027;-91
2023/11/16 21:48:25;;;;;;;3.75;2.70;;;;;;;0.34;78.70;99385.84;6263934;22;20026;-90
2023/11/16 21:50:54;;;;;;;4.73;2.80;;;;;;;0.48;78.30;99421.28;6292178;22;20018;-89
2023/11/16 21:53:51;;;;;;;4.50;2.65;;;;;;;0.13;78.47;99347.06;6289782;22;20099;-89
2023/11/16 21:56:22;;;;;;;4.00;2.63;;;;;;;0.47;78.46;99387.38;6265420;22;20023;-88
2023/11/16 21:59:06;;;;;;;2.85;2.03;;;;;;;0.15;77.46;99373.69;6289562;22;20016;-89
2023/11/16 22:01:58;;;;;;;3.25;2.40;;;;;;;0.62;77.54;99454.84;6238079;22;20015;-88
2023/11/16 22:04:56;;;;;;;3.75;2.13;;;;;;;0.63;77.32;99453.81;6261105;22;20023;-89
2023/11/16 22:07:32;;;;;;;3.15;1.83;;;;;;;0.48;77.35;99453.56;6280670;22;20042;-91
2023/11/16 22:10:24;;;;;;;3.13;1.75;;;;;;;0.32;77.17;99467.78;6144379;23;20085;-89
2023/11/16 22:13:15;;;;;;;2.10;1.40;;;;;;;0.28;76.66;99463.97;6170919;23;20029;-90
2023/11/16 22:15:42;;;;;;;1.75;1.38;;;;;;;0.01;75.97;99428.81;6172027;23;20021;-89
2023/11/16 22:18:08;;;;;;;7.03;1.17;;;;;;;0.10;75.25;99446.16;6146343;23;20020;-92
2023/11/16 22:20:34;;;;;;;1.38;1.13;;;;;;;-0.11;74.84;99418.09;6122502;23;20017;-92
2023/11/16 22:23:00;;;;;;;9.77;1.50;;;;;;;0.17;74.47;99460.28;6121954;23;20080;-90
2023/11/16 22:25:26;;;;;;;1.58;1.20;;;;;;;-0.10;74.66;99412.50;6126198;23;20025;-88
2023/11/16 22:27:52;;;;;;;1.73;0.82;;;;;;;-0.37;73.94;99380.00;6197266;23;20024;-90
2023/11/16 22:30:21;;;;;;;2.08;1.40;;;;;;;0.04;73.92;99458.72;6171433;23;20017;-89
2023/11/16 22:32:47;;;;;;;1.52;1.08;;;;;;;-0.06;73.63;99443.19;6173348;23;20017;-89
2023/11/16 22:35:17;;;;;;;1.30;0.80;;;;;;;-0.47;72.80;99401.28;6147137;23;20021;-90
2023/11/16 22:37:47;;;;;;;1.45;1.30;;;;;;;-0.49;73.49;99396.19;6179434;23;20072;-89
2023/11/16 22:40:39;;;;;;;2.22;1.45;;;;;;;0.08;74.59;99489.41;6149981;23;20021;-91
2023/11/16 22:43:06;;;;;;;4.90;1.38;;;;;;;-0.39;74.84;99425.09;6137032;23;20017;-88
2023/11/16 22:45:32;;;;;;;1.83;1.38;;;;;;;-0.16;75.12;99477.94;6199344;23;20029;-90
2023/11/16 22:47:58;;;;;;;1.48;1.10;;;;;;;-0.43;74.97;99445.44;6146276;23;20104;-90
2023/11/16 22:50:24;;;;;;;0.82;0.82;;;;;;;-0.71;74.30;99405.91;6171522;23;20017;-87
2023/11/16 22:52:50;;;;;;;2.63;1.40;;;;;;;-0.19;73.68;99496.41;6172821;23;20100;-89
2023/11/16 22:55:16;;;;;;;1.58;1.10;;;;;;;-0.58;73.54;99445.94;6148655;23;20033;-89
2023/11/16 22:57:42;;;;;;;4.05;1.60;;;;;;;-0.49;75.28;99476.72;6146803;23;20024;-88
2023/11/16 23:00:17;;;;;;;2.58;1.63;;;;;;;-0.65;76.08;99434.50;6122605;23;20016;-89
2023/11/16 23:02:45;;;;;;;2.35;1.67;;;;;;;-0.19;76.28;99499.91;6174852;23;20017;-92
2023/11/16 23:05:13;;;;;;;3.40;1.70;;;;;;;-0.29;76.86;99483.59;6126257;23;20017;-88
2023/11/16 23:07:39;;;;;;;5.47;1.83;;;;;;;-0.18;76.44;99495.34;6150857;23;20025;-90
2023/11/16 23:10:56;;;;;;;3.25;1.70;;;;;;;-0.07;76.49;99513.28;6210908;22;20040;-88
2023/11/16 23:13:24;;;;;;;6.53;1.58;;;;;;;-0.18;76.47;99495.34;6270001;22;20012;-90
2023/11/16 23:15:50;;;;;;;1.80;1.55;;;;;;;-0.43;76.27;99463.41;6325834;22;20015;-92
2023/11/16 23:18:18;;;;;;;4.57;2.55;;;;;;;-0.35;75.86;99474.59;6272109;22;20011;-90
2023/11/16 23:20:44;;;;;;;9.05;2.30;;;;;;;-0.39;75.87;99476.13;6295175;22;20035;-91
2023/11/16 23:23:13;;;;;;;4.47;2.13;;;;;;;-0.52;75.86;99462.97;6242135;22;20019;-90
2023/11/16 23:25:44;;;;;;;7.25;2.22;;;;;;;-0.22;75.59;99515.69;6265289;22;20019;-86
2023/11/16 23:28:17;;;;;;;5.82;2.60;;;;;;;-0.41;75.89;99498.91;6296357;22;20040;-87
2023/11/16 23:30:45;;;;;;;3.65;2.08;;;;;;;-0.64;75.49;99459.47;6244529;22;20011;-88
2023/11/16 23:33:11;;;;;;;2.97;2.10;;;;;;;-0.18;74.94;99546.38;6270925;22;19995;-89
2023/11/16 23:35:37;;;;;;;3.70;2.03;;;;;;;-0.58;75.25;99478.16;6241145;22;20066;-88
2023/11/16 23:38:03;;;;;;;3.83;2.28;;;;;;;-0.52;73.75;99501.38;6292462;22;20409;-91
2023/11/16 23:40:31;;;;;;;2.23;1.67;;;;;;;-0.35;72.76;99563.22;6241820;22;20019;-91
2023/11/16 23:42:56;;;;;;;;;;;;;;;-0.43;73.43;99554.69;6321235;22;20242;-90
2023/11/16 23:45:23;;;;;;;2.28;1.55;;;;;;;-0.89;74.19;99491.94;6267096;22;20238;-90
2023/11/16 23:47:49;;;;;;;2.10;1.50;;;;;;;-0.60;74.18;99525.88;6267148;22;20027;-89
2023/11/16 23:50:15;;;;;;;5.15;1.65;;;;;;;-0.78;73.06;99497.31;6293165;22;20100;-91
2023/11/16 23:52:41;;;;;;;3.08;1.85;;;;;;;-0.64;72.71;99513.16;6266728;22;20510;-86
2023/11/16 23:55:11;;;;;;;2.38;1.70;;;;;;;-0.16;73.36;99568.47;6266596;22;20019;-90
2023/11/16 23:57:38;;;;;;;3.78;2.10;;;;;;;-0.61;71.29;99504.66;6293092;22;20019;-90
